Time;durP1;ratioP1;P1;durP2;ratioP2;P2;SDS_P1;SDS_P2;PMS_P1;PMS_P2;Temp;Humidity;BMP_temperature;BMP_pressure;BME280_temperature;BME280_humidity;BME280_pressure;Samples;Min_cycle;Max_cycle;Signal;HPM_P1;HPM_P2
2021/11/22 00:01:45;;;;;;;12.97;9.27;;;4.50;94.10;;;;;;5058012;28;20201;-85
2021/11/22 00:04:12;;;;;;;13.73;9.00;;;4.70;93.80;;;;;;5057281;28;20242;-85
2021/11/22 00:06:40;;;;;;;14.00;9.23;;;4.80;93.40;;;;;;5064426;28;20208;-84
2021/11/22 00:09:07;;;;;;;14.53;9.50;;;4.80;92.90;;;;;;5061328;28;20288;-86
2021/11/22 00:11:34;;;;;;;12.83;8.57;;;4.70;93.30;;;;;;5064831;28;20232;-85
2021/11/22 00:14:01;;;;;;;13.90;8.90;;;4.70;93.90;;;;;;5062966;28;20582;-85
2021/11/22 00:16:28;;;;;;;14.00;9.73;;;4.80;93.10;;;;;;5072629;28;20221;-84
2021/11/22 00:18:57;;;;;;;15.87;10.40;;;4.80;93.20;;;;;;5066546;28;20212;-83
2021/11/22 00:21:24;;;;;;;18.07;10.83;;;4.70;93.40;;;;;;5070219;28;20234;-83
2021/11/22 00:23:51;;;;;;;19.20;10.50;;;4.50;94.00;;;;;;5074987;28;20899;-85
2021/11/22 00:26:19;;;;;;;17.07;11.27;;;4.60;94.00;;;;;;5071506;28;20667;-84
2021/11/22 00:28:46;;;;;;;16.37;10.70;;;4.70;94.10;;;;;;5066127;28;20208;-85
2021/11/22 00:31:13;;;;;;;16.57;10.80;;;4.70;94.30;;;;;;5069544;28;20699;-85
2021/11/22 00:33:42;;;;;;;15.13;9.33;;;4.70;93.60;;;;;;5069172;28;20201;-83
2021/11/22 00:36:11;;;;;;;16.80;11.33;;;4.60;93.90;;;;;;5063425;28;20224;-83
2021/11/22 00:38:39;;;;;;;16.03;10.20;;;4.60;94.40;;;;;;5079047;28;20209;-85
2021/11/22 00:41:07;;;;;;;16.70;11.07;;;4.80;94.30;;;;;;5060126;28;20236;-83
2021/11/22 00:43:34;;;;;;;21.17;11.87;;;4.80;93.70;;;;;;5073846;28;20257;-83
2021/11/22 00:46:01;;;;;;;17.03;11.00;;;4.70;93.90;;;;;;5067525;28;20252;-85
2021/11/22 00:48:28;;;;;;;16.37;11.10;;;4.70;94.40;;;;;;5077029;28;20209;-85
2021/11/22 00:50:56;;;;;;;22.23;12.00;;;4.70;93.80;;;;;;5073050;28;20229;-86
2021/11/22 00:53:24;;;;;;;19.50;11.60;;;4.60;94.10;;;;;;5066005;28;20571;-86
2021/11/22 00:55:52;;;;;;;20.43;12.53;;;4.50;94.50;;;;;;5077798;28;20691;-85
2021/11/22 00:58:19;;;;;;;20.10;12.50;;;4.40;94.80;;;;;;5066440;28;20213;-85
2021/11/22 01:00:46;;;;;;;20.27;12.70;;;4.40;95.00;;;;;;5069209;28;20218;-85
2021/11/22 01:03:13;;;;;;;19.40;12.43;;;4.40;95.20;;;;;;5071980;28;20204;-84
2021/11/22 01:05:40;;;;;;;18.73;11.63;;;4.50;95.00;;;;;;5079067;28;20530;-84
2021/11/22 01:08:08;;;;;;;20.83;11.67;;;4.40;95.00;;;;;;5097028;28;20196;-85
2021/11/22 01:10:38;;;;;;;18.13;11.73;;;4.70;95.00;;;;;;5070574;28;20618;-86
2021/11/22 01:13:06;;;;;;;19.87;11.40;;;4.80;94.20;;;;;;5082001;28;20616;-86
2021/11/22 01:15:34;;;;;;;19.80;12.37;;;4.80;93.60;;;;;;5068709;28;20229;-85
2021/11/22 01:18:01;;;;;;;17.53;12.20;;;4.70;93.70;;;;;;5073888;28;20212;-86
2021/11/22 01:20:31;;;;;;;16.97;11.23;;;4.70;94.10;;;;;;5072122;28;20233;-85
2021/11/22 01:22:59;;;;;;;15.90;10.67;;;4.70;93.90;;;;;;5084603;28;20197;-86
2021/11/22 01:25:27;;;;;;;16.97;11.33;;;4.60;93.90;;;;;;5078494;28;20601;-85
2021/11/22 01:27:55;;;;;;;21.23;12.10;;;4.70;93.90;;;;;;5073533;28;20204;-86
2021/11/22 01:30:23;;;;;;;18.93;11.63;;;4.60;93.90;;;;;;5080677;28;20573;-85
2021/11/22 01:32:51;;;;;;;16.97;11.00;;;4.50;94.30;;;;;;5080959;28;20558;-85
2021/11/22 01:35:18;;;;;;;20.37;12.57;;;4.50;94.40;;;;;;5067796;28;20228;-86
2021/11/22 01:37:46;;;;;;;16.20;11.17;;;4.60;94.10;;;;;;5073917;28;20208;-85
2021/11/22 01:40:15;;;;;;;17.13;11.17;;;4.60;94.10;;;;;;5065573;28;20707;-85
2021/11/22 01:42:42;;;;;;;17.60;11.90;;;4.60;94.30;;;;;;5072020;28;20292;-84
2021/11/22 01:45:13;;;;;;;19.27;10.63;;;4.60;94.00;;;;;;5063342;28;20232;-85
2021/11/22 01:47:41;;;;;;;14.90;9.50;;;4.40;94.10;;;;;;5071067;28;20212;-85
2021/11/22 01:50:10;;;;;;;16.57;10.97;;;4.40;94.30;;;;;;5077938;28;20684;-85
2021/11/22 01:52:39;;;;;;;15.93;9.33;;;4.40;94.40;;;;;;5063685;28;20198;-85
2021/11/22 01:55:07;;;;;;;14.40;9.83;;;4.40;94.60;;;;;;5076421;28;20229;-85
2021/11/22 01:57:34;;;;;;;15.53;9.83;;;4.40;94.80;;;;;;5073319;28;21521;-85
2021/11/22 02:00:02;;;;;;;17.50;9.80;;;4.50;94.40;;;;;;5066649;28;20282;-85
2021/11/22 02:02:30;;;;;;;14.43;9.93;;;4.40;94.20;;;;;;5063889;28;20205;-85
2021/11/22 02:04:57;;;;;;;17.40;10.50;;;4.40;94.60;;;;;;5063775;28;20225;-85
2021/11/22 02:07:24;;;;;;;13.87;9.97;;;4.40;94.60;;;;;;5066772;28;20675;-85
2021/11/22 02:09:51;;;;;;;16.70;11.80;;;4.40;94.70;;;;;;5065103;28;20221;-85
2021/11/22 02:12:18;;;;;;;17.33;11.80;;;4.40;94.60;;;;;;5078917;28;20549;-85
2021/11/22 02:14:45;;;;;;;15.40;10.40;;;4.40;95.00;;;;;;5066036;28;20237;-85
2021/11/22 02:17:12;;;;;;;17.63;11.73;;;4.40;94.50;;;;;;5073288;28;20212;-85
2021/11/22 02:19:52;;;;;;;18.50;11.63;;;4.30;94.70;;;;;;5074700;28;20225;-85
2021/11/22 02:22:19;;;;;;;16.10;11.00;;;4.40;95.00;;;;;;5075652;28;20204;-86
2021/11/22 02:24:46;;;;;;;16.73;11.40;;;4.40;94.90;;;;;;5064669;28;20221;-85
2021/11/22 02:27:16;;;;;;;17.17;12.00;;;4.40;94.50;;;;;;5071033;28;20686;-85
2021/11/22 02:29:43;;;;;;;15.93;10.73;;;4.40;94.80;;;;;;5069422;28;20675;-85
2021/11/22 02:32:10;;;;;;;16.57;11.43;;;4.30;94.50;;;;;;5064840;28;20728;-85
2021/11/22 02:34:40;;;;;;;14.07;10.27;;;4.30;94.90;;;;;;5062997;28;20225;-85
2021/11/22 02:37:07;;;;;;;15.43;9.90;;;4.60;95.00;;;;;;5073101;28;20213;-85
2021/11/22 02:39:34;;;;;;;16.33;10.57;;;4.90;94.20;;;;;;5066785;28;20225;-85
2021/11/22 02:42:01;;;;;;;14.53;10.43;;;4.70;93.50;;;;;;5077833;28;20201;-85
2021/11/22 02:44:28;;;;;;;14.07;9.97;;;4.70;93.90;;;;;;5064612;28;20227;-85
2021/11/22 02:46:55;;;;;;;15.47;11.03;;;4.60;93.80;;;;;;5070750;28;20208;-85
2021/11/22 02:49:22;;;;;;;16.03;11.23;;;4.50;94.00;;;;;;5077200;28;20197;-85
2021/11/22 02:51:51;;;;;;;17.70;11.70;;;4.40;94.70;;;;;;5068957;28;20209;-85
2021/11/22 02:54:18;;;;;;;16.10;11.10;;;4.50;94.60;;;;;;5064137;28;20205;-85
2021/11/22 02:56:44;;;;;;;16.03;10.57;;;4.40;94.80;;;;;;5070350;28;20667;-85
2021/11/22 02:59:11;;;;;;;16.80;10.70;;;4.40;95.00;;;;;;5072341;28;20209;-85
2021/11/22 03:01:38;;;;;;;14.40;10.90;;;4.40;94.90;;;;;;5069061;28;20205;-85
2021/11/22 03:04:06;;;;;;;16.13;11.43;;;4.30;94.90;;;;;;5068145;28;20239;-85
2021/11/22 03:06:33;;;;;;;14.80;10.27;;;4.40;95.00;;;;;;5066906;28;20475;-85
2021/11/22 03:09:01;;;;;;;15.97;10.27;;;4.30;94.90;;;;;;5068899;28;20669;-85
2021/11/22 03:11:28;;;;;;;13.57;10.30;;;4.40;95.00;;;;;;5062317;28;20703;-85
2021/11/22 03:13:55;;;;;;;12.87;9.53;;;4.30;94.90;;;;;;5070584;28;20215;-84
2021/11/22 03:16:24;;;;;;;13.67;10.07;;;4.30;94.90;;;;;;5062080;28;20272;-85
2021/11/22 03:18:51;;;;;;;15.43;10.70;;;4.30;94.90;;;;;;5073568;28;20209;-85
2021/11/22 03:21:17;;;;;;;14.50;10.07;;;4.30;94.90;;;;;;5077566;28;20228;-85
2021/11/22 03:23:44;;;;;;;13.13;9.33;;;4.40;95.00;;;;;;5079815;28;20200;-85
2021/11/22 03:26:13;;;;;;;15.43;9.30;;;4.50;95.00;;;;;;5061132;28;20228;-85
2021/11/22 03:28:40;;;;;;;14.53;10.10;;;4.40;95.00;;;;;;5061414;28;20198;-85
2021/11/22 03:31:07;;;;;;;13.17;9.43;;;4.40;95.00;;;;;;5060347;28;20213;-85
2021/11/22 03:33:34;;;;;;;15.00;10.33;;;4.40;94.90;;;;;;5069395;28;20216;-85
2021/11/22 03:36:01;;;;;;;14.07;9.80;;;4.50;95.00;;;;;;5067679;28;20231;-85
2021/11/22 03:38:30;;;;;;;14.20;10.67;;;4.50;95.00;;;;;;5082006;28;20223;-85
2021/11/22 03:40:59;;;;;;;15.57;10.90;;;4.60;95.00;;;;;;5064933;28;20213;-85
2021/11/22 03:43:31;;;;;;;12.47;9.53;;;4.60;94.70;;;;;;5055789;28;20230;-85
2021/11/22 03:45:58;;;;;;;14.53;9.73;;;4.60;94.70;;;;;;5068251;28;20221;-85
2021/11/22 03:48:26;;;;;;;12.70;9.30;;;4.80;94.50;;;;;;5066743;28;20203;-84
2021/11/22 03:50:53;;;;;;;13.40;10.40;;;4.80;94.30;;;;;;5064204;28;20221;-85
2021/11/22 03:53:19;;;;;;;16.37;11.43;;;4.90;94.00;;;;;;5067204;28;20197;-85
2021/11/22 03:55:46;;;;;;;13.37;10.47;;;4.90;93.70;;;;;;5072038;28;20226;-84
2021/11/22 03:58:13;;;;;;;29.53;18.00;;;4.80;93.90;;;;;;5076130;28;20576;-84
2021/11/22 04:00:43;;;;;;;15.43;10.83;;;4.80;94.30;;;;;;5066315;28;20227;-86
2021/11/22 04:03:10;;;;;;;14.23;10.57;;;4.80;93.90;;;;;;5073738;28;22268;-85
2021/11/22 04:05:37;;;;;;;16.10;11.37;;;4.70;94.20;;;;;;5057406;28;20233;-85
2021/11/22 04:08:04;;;;;;;16.47;11.00;;;4.70;94.30;;;;;;5065398;28;20197;-85
2021/11/22 04:10:31;;;;;;;15.53;11.23;;;4.70;94.50;;;;;;5058981;28;20422;-85
2021/11/22 04:12:58;;;;;;;14.93;10.23;;;4.70;95.00;;;;;;5062321;28;20281;-85
2021/11/22 04:15:25;;;;;;;15.23;9.90;;;4.80;94.70;;;;;;5061335;28;20224;-85
2021/11/22 04:17:54;;;;;;;14.47;10.03;;;5.00;94.50;;;;;;5066664;28;20194;-85
2021/11/22 04:20:21;;;;;;;14.40;9.27;;;5.10;94.00;;;;;;5072947;28;20229;-85
2021/11/22 04:22:48;;;;;;;14.73;10.23;;;5.20;93.70;;;;;;5063616;28;20197;-85
2021/11/22 04:25:15;;;;;;;14.53;9.80;;;5.30;92.90;;;;;;5065556;28;20229;-85
2021/11/22 04:27:42;;;;;;;13.10;9.57;;;5.10;93.00;;;;;;5063838;28;20454;-84
2021/11/22 04:30:11;;;;;;;14.00;10.13;;;5.10;93.30;;;;;;5067142;28;20229;-85
2021/11/22 04:32:39;;;;;;;14.13;9.87;;;4.80;93.60;;;;;;5066621;28;20204;-85
2021/11/22 04:35:11;;;;;;;15.77;10.60;;;4.70;94.00;;;;;;5064467;28;20228;-85
2021/11/22 04:37:38;;;;;;;13.60;10.33;;;4.70;94.20;;;;;;5066345;28;20201;-85
2021/11/22 04:40:08;;;;;;;16.00;11.00;;;4.70;94.40;;;;;;5068388;28;20227;-85
2021/11/22 04:42:35;;;;;;;15.00;10.73;;;4.70;94.60;;;;;;5068145;28;20211;-85
2021/11/22 04:45:03;;;;;;;14.33;9.77;;;4.80;94.70;;;;;;5057819;28;20229;-85
2021/11/22 04:47:30;;;;;;;14.43;9.60;;;4.70;94.50;;;;;;5077510;28;20198;-85
2021/11/22 04:49:57;;;;;;;17.33;10.10;;;4.60;94.60;;;;;;5078822;28;20598;-85
2021/11/22 04:52:25;;;;;;;14.50;10.17;;;4.60;95.00;;;;;;5072265;28;20211;-85
2021/11/22 04:54:52;;;;;;;15.17;9.83;;;4.60;95.00;;;;;;5073297;28;20228;-85
2021/11/22 04:57:19;;;;;;;15.30;10.67;;;4.50;95.00;;;;;;5060173;28;20232;-85
2021/11/22 04:59:46;;;;;;;14.83;11.03;;;4.50;95.00;;;;;;5074373;28;20249;-85
2021/11/22 05:02:13;;;;;;;16.30;10.83;;;4.50;95.00;;;;;;5058456;28;20574;-85
2021/11/22 05:04:40;;;;;;;14.57;10.20;;;4.50;95.00;;;;;;5064884;28;20700;-85
2021/11/22 05:07:08;;;;;;;14.00;9.57;;;4.40;95.00;;;;;;5061260;28;20568;-85
2021/11/22 05:09:37;;;;;;;13.67;9.77;;;4.60;95.10;;;;;;5077310;28;20225;-85
2021/11/22 05:12:04;;;;;;;13.30;9.77;;;4.70;95.00;;;;;;5065843;28;20209;-85
2021/11/22 05:14:31;;;;;;;14.17;10.67;;;4.70;94.70;;;;;;5061997;28;20201;-85
2021/11/22 05:16:58;;;;;;;17.40;11.37;;;4.70;95.00;;;;;;5074613;28;20610;-85
2021/11/22 05:19:30;;;;;;;14.80;11.57;;;4.70;95.00;;;;;;5071741;28;20198;-85
2021/11/22 05:21:57;;;;;;;14.93;10.93;;;4.60;95.00;;;;;;5071777;28;20200;-85
2021/11/22 05:24:24;;;;;;;17.30;12.07;;;4.60;95.00;;;;;;5069304;28;20223;-85
2021/11/22 05:26:52;;;;;;;18.60;12.13;;;4.60;95.00;;;;;;5068265;28;20201;-85
2021/11/22 05:29:19;;;;;;;18.30;12.13;;;4.60;95.30;;;;;;5072249;28;20216;-85
2021/11/22 05:31:46;;;;;;;21.47;13.13;;;4.50;95.20;;;;;;5076086;28;20684;-85
2021/11/22 05:34:13;;;;;;;19.30;13.00;;;4.60;95.00;;;;;;5069193;28;20206;-84
2021/11/22 05:36:40;;;;;;;20.67;13.73;;;4.50;95.00;;;;;;5066894;28;20233;-85
2021/11/22 05:39:07;;;;;;;19.47;13.37;;;4.50;95.00;;;;;;5058211;28;20202;-85
2021/11/22 05:41:35;;;;;;;19.53;13.47;;;4.60;95.00;;;;;;5061552;28;20419;-85
2021/11/22 05:44:04;;;;;;;21.17;14.90;;;4.70;95.00;;;;;;5073322;28;20225;-85
2021/11/22 05:46:31;;;;;;;21.13;14.17;;;4.70;95.00;;;;;;5068180;28;20632;-85
2021/11/22 05:48:58;;;;;;;22.03;13.37;;;4.70;95.00;;;;;;5079663;28;20201;-85
2021/11/22 05:51:26;;;;;;;19.47;13.47;;;4.70;95.00;;;;;;5061083;28;20704;-85
2021/11/22 05:53:56;;;;;;;20.47;14.67;;;4.60;95.00;;;;;;5084964;28;20590;-85
2021/11/22 05:56:23;;;;;;;21.30;14.30;;;4.70;95.00;;;;;;5056228;28;20238;-85
2021/11/22 05:58:50;;;;;;;21.40;13.90;;;4.60;95.50;;;;;;5073194;28;20197;-85
2021/11/22 06:01:19;;;;;;;22.13;14.17;;;4.60;95.40;;;;;;5066340;28;20307;-85
2021/11/22 06:03:46;;;;;;;21.67;14.30;;;4.60;95.30;;;;;;5056245;28;20729;-85
2021/11/22 06:06:13;;;;;;;22.47;14.03;;;4.60;95.60;;;;;;5057662;28;20660;-85
2021/11/22 06:08:40;;;;;;;20.53;13.80;;;4.50;95.90;;;;;;5064204;28;20595;-85
2021/11/22 06:11:07;;;;;;;21.53;14.30;;;4.60;96.20;;;;;;5065397;28;20224;-85
2021/11/22 06:13:34;;;;;;;19.83;13.67;;;4.60;95.90;;;;;;5059795;28;20212;-85
2021/11/22 06:16:01;;;;;;;19.80;12.60;;;4.50;96.00;;;;;;5063057;28;20221;-84
2021/11/22 06:18:29;;;;;;;21.30;13.27;;;4.50;96.20;;;;;;5062340;28;20566;-84
2021/11/22 06:20:57;;;;;;;19.67;12.90;;;4.50;96.40;;;;;;5063548;28;20228;-87
2021/11/22 06:23:24;;;;;;;18.07;12.47;;;4.50;96.40;;;;;;5064397;28;20219;-86
2021/11/22 06:25:51;;;;;;;19.87;13.07;;;4.50;96.60;;;;;;5066823;28;20627;-86
2021/11/22 06:28:19;;;;;;;20.20;13.20;;;4.50;96.70;;;;;;5068955;28;20215;-85
2021/11/22 06:30:46;;;;;;;16.57;12.27;;;4.60;96.80;;;;;;5073785;28;20763;-85
2021/11/22 06:33:13;;;;;;;19.03;12.87;;;4.60;96.80;;;;;;5067083;28;20209;-86
2021/11/22 06:35:42;;;;;;;19.57;13.27;;;4.50;96.80;;;;;;5067797;28;20224;-85
2021/11/22 06:38:09;;;;;;;17.47;11.77;;;4.50;97.00;;;;;;5074424;28;20201;-86
2021/11/22 06:40:36;;;;;;;15.93;11.07;;;4.50;96.90;;;;;;5065199;28;20224;-85
2021/11/22 06:43:03;;;;;;;16.40;11.07;;;4.70;96.80;;;;;;5069904;28;20201;-85
2021/11/22 06:45:30;;;;;;;18.57;12.20;;;4.60;96.70;;;;;;5077043;28;20565;-85
2021/11/22 06:47:57;;;;;;;19.93;11.40;;;4.60;96.60;;;;;;5074864;28;20287;-84
2021/11/22 06:50:25;;;;;;;16.80;11.70;;;4.60;96.60;;;;;;5078239;28;20223;-85
2021/11/22 06:52:54;;;;;;;16.90;12.07;;;4.50;96.90;;;;;;5059494;28;20214;-85
2021/11/22 06:55:21;;;;;;;20.23;12.70;;;4.60;97.40;;;;;;5063732;28;20238;-84
2021/11/22 06:57:48;;;;;;;19.43;12.70;;;4.50;97.20;;;;;;5058397;28;20684;-85
2021/11/22 07:00:18;;;;;;;18.90;12.40;;;4.50;97.60;;;;;;5068542;28;20239;-85
2021/11/22 07:02:50;;;;;;;18.47;12.63;;;4.50;97.60;;;;;;5066821;28;20612;-84
2021/11/22 07:05:17;;;;;;;18.20;12.00;;;4.60;97.60;;;;;;5058793;28;20225;-84
2021/11/22 07:07:44;;;;;;;18.17;11.90;;;4.60;97.40;;;;;;5060229;28;20189;-85
2021/11/22 07:10:13;;;;;;;15.93;11.43;;;4.60;97.10;;;;;;5058517;28;20226;-85
2021/11/22 07:12:40;;;;;;;18.50;12.27;;;4.50;96.90;;;;;;5061524;28;20656;-85
2021/11/22 07:15:09;;;;;;;18.03;12.17;;;4.60;97.10;;;;;;5060515;28;20706;-85
2021/11/22 07:17:36;;;;;;;20.07;12.97;;;4.60;97.10;;;;;;5064523;28;20681;-85
2021/11/22 07:20:04;;;;;;;18.57;12.40;;;4.70;97.20;;;;;;5058230;28;20222;-84
2021/11/22 07:22:31;;;;;;;19.53;12.83;;;4.70;96.60;;;;;;5065986;28;20653;-84
2021/11/22 07:24:58;;;;;;;16.73;11.70;;;4.70;96.60;;;;;;5065431;28;20227;-84
2021/11/22 07:27:27;;;;;;;18.40;12.13;;;4.80;96.80;;;;;;5072540;28;20229;-85
2021/11/22 07:29:56;;;;;;;19.23;12.97;;;4.90;96.50;;;;;;5069942;28;20680;-83
2021/11/22 07:32:26;;;;;;;19.53;13.23;;;4.80;95.90;;;;;;5066680;28;20570;-84
2021/11/22 07:34:53;;;;;;;16.30;11.63;;;4.80;95.80;;;;;;5065147;28;20217;-84
2021/11/22 07:37:20;;;;;;;18.77;12.30;;;4.90;96.60;;;;;;5064867;28;20221;-85
2021/11/22 07:39:47;;;;;;;20.87;13.93;;;5.00;95.10;;;;;;5064212;28;20241;-84
2021/11/22 07:42:14;;;;;;;20.20;13.07;;;5.00;95.10;;;;;;5066985;28;20252;-84
2021/11/22 07:44:43;;;;;;;19.63;13.10;;;5.00;95.10;;;;;;5064777;28;20240;-83
2021/11/22 07:47:11;;;;;;;18.77;12.20;;;5.00;95.10;;;;;;5069871;28;20245;-82
2021/11/22 07:49:42;;;;;;;17.37;11.93;;;5.00;95.10;;;;;;5060007;28;20244;-83
2021/11/22 07:52:09;;;;;;;19.97;13.20;;;5.00;95.10;;;;;;5070383;28;20219;-83
2021/11/22 07:54:36;;;;;;;21.07;13.77;;;5.10;95.10;;;;;;5054266;28;20225;-84
2021/11/22 07:57:04;;;;;;;20.73;14.03;;;5.00;95.10;;;;;;5060037;28;20228;-83
2021/11/22 07:59:31;;;;;;;18.97;12.57;;;4.80;95.00;;;;;;5058811;28;20201;-84
2021/11/22 08:02:01;;;;;;;19.53;13.10;;;4.80;95.00;;;;;;5066661;28;20693;-85
2021/11/22 08:04:28;;;;;;;18.33;12.33;;;4.80;95.70;;;;;;5064698;28;20270;-85
2021/11/22 08:06:59;;;;;;;18.67;12.63;;;4.90;95.10;;;;;;5062486;28;20216;-87
2021/11/22 08:09:28;;;;;;;21.20;13.47;;;4.90;95.10;;;;;;5060826;28;20211;-87
2021/11/22 08:12:25;;;;;;;20.77;13.40;;;4.90;95.10;;;;;;5062575;28;20247;-87
2021/11/22 08:14:53;;;;;;;18.17;12.07;;;4.80;95.60;;;;;;5060157;28;20647;-86
2021/11/22 08:17:21;;;;;;;20.13;13.00;;;4.80;95.00;;;;;;5056266;28;20295;-85
2021/11/22 08:19:49;;;;;;;19.63;12.87;;;4.80;95.00;;;;;;5067133;28;20225;-85
2021/11/22 08:22:16;;;;;;;18.43;12.67;;;4.70;95.00;;;;;;5069147;28;20197;-85
2021/11/22 08:24:45;;;;;;;21.80;13.40;;;4.70;95.70;;;;;;5062404;28;20715;-84
2021/11/22 08:27:12;;;;;;;16.93;12.27;;;4.70;95.60;;;;;;5068099;28;20197;-84
2021/11/22 08:29:40;;;;;;;17.30;12.30;;;4.70;95.40;;;;;;5060652;28;20237;-84
2021/11/22 08:32:07;;;;;;;19.63;12.97;;;4.70;95.60;;;;;;5074358;28;20559;-85
2021/11/22 08:34:35;;;;;;;18.67;12.23;;;4.80;95.80;;;;;;5058048;28;20609;-85
2021/11/22 08:37:03;;;;;;;19.20;12.60;;;4.70;95.50;;;;;;5066715;28;20224;-85
2021/11/22 08:39:31;;;;;;;19.77;12.73;;;4.70;95.50;;;;;;5060158;28;20546;-85
2021/11/22 08:41:58;;;;;;;20.40;12.80;;;4.80;95.50;;;;;;5056350;28;20200;-85
2021/11/22 08:44:25;;;;;;;20.53;13.63;;;4.80;95.20;;;;;;5060862;28;20221;-85
2021/11/22 08:46:52;;;;;;;20.93;13.00;;;4.80;95.90;;;;;;5069433;28;20297;-86
2021/11/22 08:49:19;;;;;;;18.70;12.87;;;4.80;95.60;;;;;;5058469;28;20707;-84
2021/11/22 08:51:47;;;;;;;18.77;13.00;;;4.90;95.70;;;;;;5056025;28;20747;-85
2021/11/22 08:54:14;;;;;;;18.13;12.63;;;4.90;95.70;;;;;;5065134;28;20278;-85
2021/11/22 08:56:42;;;;;;;17.27;11.40;;;4.90;95.60;;;;;;5061104;28;20198;-85
2021/11/22 08:59:09;;;;;;;20.03;11.87;;;5.00;95.30;;;;;;5064606;28;20202;-84
2021/11/22 09:01:36;;;;;;;18.57;11.53;;;5.00;95.10;;;;;;5066060;28;20240;-85
2021/11/22 09:04:04;;;;;;;17.57;12.13;;;5.10;95.10;;;;;;5063349;28;20197;-86
2021/11/22 09:06:33;;;;;;;16.97;11.50;;;5.00;94.80;;;;;;5059345;28;20226;-86
2021/11/22 09:09:01;;;;;;;14.73;10.67;;;5.00;95.10;;;;;;5066826;28;20683;-85
2021/11/22 09:11:28;;;;;;;16.83;11.13;;;5.10;95.10;;;;;;5068134;28;20244;-86
2021/11/22 09:13:55;;;;;;;17.47;11.03;;;5.20;95.10;;;;;;5068225;28;20674;-86
2021/11/22 09:16:27;;;;;;;16.20;10.83;;;5.30;95.10;;;;;;5067567;28;20232;-85
2021/11/22 09:18:54;;;;;;;16.63;10.17;;;5.30;94.50;;;;;;5059344;28;20341;-85
2021/11/22 09:21:21;;;;;;;15.43;9.63;;;5.20;94.10;;;;;;5060682;28;20606;-84
2021/11/22 09:23:48;;;;;;;17.80;11.30;;;5.20;94.20;;;;;;5064971;28;20285;-84
2021/11/22 09:26:17;;;;;;;16.57;10.60;;;5.10;94.20;;;;;;5056769;28;20890;-85
2021/11/22 09:28:45;;;;;;;19.77;11.40;;;4.90;94.10;;;;;;5066613;28;20207;-85
2021/11/22 09:31:12;;;;;;;15.03;10.37;;;5.00;95.10;;;;;;5064306;28;20227;-86
2021/11/22 09:33:39;;;;;;;15.90;11.27;;;5.00;95.00;;;;;;5071774;28;20198;-85
2021/11/22 09:36:06;;;;;;;16.20;11.07;;;5.00;94.80;;;;;;5066589;28;20222;-84
2021/11/22 09:38:33;;;;;;;17.73;11.87;;;5.10;94.60;;;;;;5067318;28;20217;-86
2021/11/22 09:41:00;;;;;;;16.97;11.63;;;5.00;95.10;;;;;;5068720;28;20253;-86
2021/11/22 09:43:29;;;;;;;16.97;11.47;;;5.10;95.10;;;;;;5062054;28;20282;-86
2021/11/22 09:45:57;;;;;;;20.50;12.10;;;5.10;95.10;;;;;;5064369;28;20281;-86
2021/11/22 09:48:24;;;;;;;16.70;10.90;;;5.10;95.10;;;;;;5066190;28;20201;-86
2021/11/22 09:50:52;;;;;;;15.47;10.30;;;5.10;95.10;;;;;;5071249;28;20248;-87
2021/11/22 09:53:20;;;;;;;16.67;9.97;;;5.30;94.40;;;;;;5071236;28;20621;-86
2021/11/22 09:55:47;;;;;;;15.90;11.20;;;5.20;94.20;;;;;;5069881;28;20478;-87
2021/11/22 09:58:14;;;;;;;16.87;10.87;;;5.20;94.60;;;;;;5061175;28;20256;-87
2021/11/22 10:00:44;;;;;;;17.07;11.20;;;5.20;95.10;;;;;;5055515;28;20228;-87
2021/11/22 10:03:13;;;;;;;18.33;10.87;;;5.30;94.80;;;;;;5062774;28;20467;-87
2021/11/22 10:05:42;;;;;;;18.70;11.97;;;5.40;94.20;;;;;;5070067;28;20232;-87
2021/11/22 10:08:11;;;;;;;16.83;11.13;;;5.20;95.00;;;;;;5066854;28;20250;-87
2021/11/22 10:10:41;;;;;;;16.97;11.57;;;5.30;94.70;;;;;;5064976;28;20315;-87
2021/11/22 10:13:26;;;;;;;15.97;11.27;;;5.40;94.40;;;;;;5065497;28;20198;-87
2021/11/22 10:15:58;;;;;;;16.73;11.43;;;5.50;94.30;;;;;;5063360;28;20264;-86
2021/11/22 10:18:27;;;;;;;17.57;11.80;;;5.40;94.30;;;;;;5061768;28;20271;-86
2021/11/22 10:20:55;;;;;;;17.67;11.50;;;5.30;94.40;;;;;;5065136;28;20220;-86
2021/11/22 10:23:24;;;;;;;14.93;10.70;;;5.40;95.20;;;;;;5065313;28;20204;-85
2021/11/22 10:25:53;;;;;;;17.60;11.33;;;5.50;94.80;;;;;;5066836;28;20238;-88
2021/11/22 10:28:21;;;;;;;16.63;11.47;;;5.60;94.10;;;;;;5071739;28;20669;-87
2021/11/22 10:30:50;;;;;;;16.73;11.67;;;5.70;93.60;;;;;;5067639;28;20236;-85
2021/11/22 10:33:20;;;;;;;16.17;11.57;;;5.50;93.60;;;;;;5070402;28;20201;-86
2021/11/22 10:35:49;;;;;;;15.27;10.90;;;5.40;94.20;;;;;;5074000;28;20627;-84
2021/11/22 10:38:18;;;;;;;16.17;11.20;;;5.40;94.50;;;;;;5073546;28;20248;-86
2021/11/22 10:40:48;;;;;;;19.17;12.90;;;5.40;95.00;;;;;;5061032;28;20257;-87
2021/11/22 10:43:16;;;;;;;18.83;12.43;;;5.40;94.50;;;;;;5057921;28;20222;-87
2021/11/22 10:45:45;;;;;;;18.97;11.93;;;5.60;94.50;;;;;;5059346;28;20229;-87
2021/11/22 10:48:25;;;;;;;18.90;12.87;;;5.70;94.00;;;;;;5055232;28;20205;-85
2021/11/22 10:51:09;;;;;;;19.70;12.97;;;5.70;93.50;;;;;;5064606;28;20591;-87
2021/11/22 10:53:39;;;;;;;18.63;12.37;;;5.70;94.00;;;;;;5056514;28;20990;-87
2021/11/22 10:56:11;;;;;;;17.27;11.67;;;5.80;93.90;;;;;;5068479;28;20229;-87
2021/11/22 10:58:54;;;;;;;19.50;12.57;;;5.80;93.50;;;;;;5064935;28;20235;-88
2021/11/22 11:01:39;;;;;;;20.47;12.37;;;6.00;93.80;;;;;;5059990;28;20656;-87
2021/11/22 11:04:20;;;;;;;20.37;12.13;;;6.10;92.90;;;;;;5063702;28;20679;-87
2021/11/22 11:06:56;;;;;;;19.17;12.57;;;6.20;92.60;;;;;;5064089;28;20220;-87
2021/11/22 11:09:30;;;;;;;18.17;12.50;;;6.20;92.90;;;;;;5061786;28;20201;-87
2021/11/22 11:12:04;;;;;;;18.03;11.80;;;6.10;92.90;;;;;;5069413;28;20193;-87
2021/11/22 11:14:32;;;;;;;19.23;12.30;;;6.20;92.60;;;;;;5067933;28;20211;-87
2021/11/22 11:17:11;;;;;;;17.13;11.10;;;6.20;92.60;;;;;;5058333;28;20198;-87
2021/11/22 11:19:40;;;;;;;19.27;11.60;;;6.20;92.60;;;;;;5057070;28;20239;-88
2021/11/22 11:22:07;;;;;;;17.20;11.03;;;6.10;92.60;;;;;;5063757;28;20197;-87
2021/11/22 11:24:34;;;;;;;16.80;10.63;;;6.10;92.60;;;;;;5064333;28;20193;-87
2021/11/22 11:27:01;;;;;;;18.67;12.30;;;6.10;93.30;;;;;;5059481;28;20315;-88
2021/11/22 11:29:28;;;;;;;19.77;12.47;;;6.00;93.70;;;;;;5068375;28;20197;-87
2021/11/22 11:31:55;;;;;;;18.57;11.43;;;5.90;94.20;;;;;;5069137;28;21187;-87
2021/11/22 11:34:28;;;;;;;22.40;13.10;;;5.80;94.10;;;;;;5066512;28;20212;-87
2021/11/22 11:37:31;;;;;;;20.63;12.60;;;5.60;95.00;;;;;;5067366;28;20212;-87
2021/11/22 11:40:24;;;;;;;18.63;12.00;;;5.60;95.20;;;;;;5068860;28;20220;-86
2021/11/22 11:43:26;;;;;;;16.40;10.93;;;5.60;95.20;;;;;;5065237;28;20254;-86
2021/11/22 11:45:59;;;;;;;14.67;10.07;;;5.60;95.10;;;;;;5068361;28;20223;-87
2021/11/22 11:48:38;;;;;;;19.07;11.90;;;5.60;95.10;;;;;;5075545;28;20205;-86
2021/11/22 11:51:11;;;;;;;18.20;11.23;;;5.70;95.00;;;;;;5058827;28;20213;-86
2021/11/22 11:54:01;;;;;;;16.80;10.90;;;5.60;95.20;;;;;;5073794;28;20202;-86
2021/11/22 11:56:32;;;;;;;18.50;11.30;;;5.70;95.20;;;;;;5077270;28;20220;-86
2021/11/22 11:59:14;;;;;;;15.57;10.30;;;5.70;94.90;;;;;;5072237;28;20229;-86
2021/11/22 12:02:06;;;;;;;18.90;11.17;;;5.60;94.90;;;;;;5059370;28;20617;-86
2021/11/22 12:04:56;;;;;;;17.23;11.60;;;5.60;95.20;;;;;;5075246;28;21648;-85
2021/11/22 12:07:29;;;;;;;18.43;11.30;;;5.60;95.20;;;;;;5057873;28;20472;-86
2021/11/22 12:10:15;;;;;;;16.60;10.73;;;5.80;95.20;;;;;;5062763;28;20225;-85
2021/11/22 12:12:49;;;;;;;14.77;10.30;;;5.80;95.10;;;;;;5064655;28;20216;-86
2021/11/22 12:15:23;;;;;;;14.83;10.10;;;5.90;94.40;;;;;;5063088;28;20290;-86
2021/11/22 12:18:01;;;;;;;15.50;10.57;;;5.80;94.10;;;;;;5066290;28;20304;-86
2021/11/22 12:20:48;;;;;;;16.30;11.03;;;5.80;94.80;;;;;;5054173;28;20222;-87
2021/11/22 12:23:19;;;;;;;16.60;10.33;;;5.80;94.60;;;;;;5057650;28;20213;-86
2021/11/22 12:25:50;;;;;;;16.23;11.03;;;5.70;94.30;;;;;;5061662;28;20229;-86
2021/11/22 12:28:43;;;;;;;15.90;11.60;;;5.70;94.90;;;;;;5062671;28;20220;-87
2021/11/22 12:31:13;;;;;;;16.47;11.00;;;5.60;95.20;;;;;;5056999;28;20236;-87
2021/11/22 12:33:41;;;;;;;16.73;11.43;;;5.60;95.20;;;;;;5063038;28;20229;-88
2021/11/22 12:36:40;;;;;;;16.43;11.43;;;5.60;95.40;;;;;;5062997;28;20658;-87
2021/11/22 12:39:14;;;;;;;17.00;11.90;;;5.60;95.80;;;;;;5068337;28;20756;-88
2021/11/22 12:41:41;;;;;;;17.93;12.17;;;5.60;96.10;;;;;;5076385;28;20224;-87
2021/11/22 12:44:12;;;;;;;18.20;11.80;;;5.70;95.90;;;;;;5060502;28;20235;-87
2021/11/22 12:46:48;;;;;;;17.30;12.30;;;5.60;95.80;;;;;;5061895;28;20217;-86
2021/11/22 12:49:27;;;;;;;18.10;11.87;;;5.60;96.40;;;;;;5062558;28;20304;-87